sensor_id;sensor_type;location;lat;lon;timestamp;pressure;altitude;pressure_sealevel;temperature;humidity
34586;BME280;20816;50.950;11.108;2023-03-20T00:02:19;98492.50;;;9.70;100.00
34586;BME280;20816;50.950;11.108;2023-03-20T00:04:47;98497.75;;;9.70;100.00
34586;BME280;20816;50.950;11.108;2023-03-20T00:07:13;98501.28;;;9.69;100.00
34586;BME280;20816;50.950;11.108;2023-03-20T00:09:40;98501.47;;;9.59;100.00
34586;BME280;20816;50.950;11.108;2023-03-20T00:12:14;98510.44;;;9.47;100.00
34586;BME280;20816;50.950;11.108;2023-03-20T00:14:42;98491.41;;;9.36;100.00
34586;BME280;20816;50.950;11.108;2023-03-20T00:17:13;98500.94;;;9.41;100.00
34586;BME280;20816;50.950;11.108;2023-03-20T00:19:46;98496.72;;;9.33;100.00
34586;BME280;20816;50.950;11.108;2023-03-20T00:22:17;98501.19;;;9.29;100.00
34586;BME280;20816;50.950;11.108;2023-03-20T00:24:43;98506.59;;;9.18;100.00
34586;BME280;20816;50.950;11.108;2023-03-20T00:27:15;98497.97;;;9.12;100.00
34586;BME280;20816;50.950;11.108;2023-03-20T00:29:43;98507.66;;;9.08;100.00
34586;BME280;20816;50.950;11.108;2023-03-20T00:32:13;98502.31;;;9.14;100.00
34586;BME280;20816;50.950;11.108;2023-03-20T00:34:40;98501.47;;;9.11;100.00
34586;BME280;20816;50.950;11.108;2023-03-20T00:37:07;98504.16;;;9.08;100.00
34586;BME280;20816;50.950;11.108;2023-03-20T00:39:34;98502.47;;;9.05;100.00
34586;BME280;20816;50.950;11.108;2023-03-20T00:42:03;98500.63;;;9.10;100.00
34586;BME280;20816;50.950;11.108;2023-03-20T00:44:51;98505.94;;;9.07;100.00
34586;BME280;20816;50.950;11.108;2023-03-20T00:47:21;98492.75;;;9.10;100.00
34586;BME280;20816;50.950;11.108;2023-03-20T00:49:52;98498.03;;;9.09;100.00
34586;BME280;20816;50.950;11.108;2023-03-20T00:52:21;98505.94;;;9.07;100.00
34586;BME280;20816;50.950;11.108;2023-03-20T00:54:48;98505.84;;;9.10;100.00
34586;BME280;20816;50.950;11.108;2023-03-20T00:57:16;98507.31;;;9.26;100.00
34586;BME280;20816;50.950;11.108;2023-03-20T00:59:58;98509.19;;;9.21;100.00
34586;BME280;20816;50.950;11.108;2023-03-20T01:02:27;98501.97;;;9.33;100.00
34586;BME280;20816;50.950;11.108;2023-03-20T01:04:54;98510.84;;;9.25;100.00
34586;BME280;20816;50.950;11.108;2023-03-20T01:07:21;98506.41;;;9.29;100.00
34586;BME280;20816;50.950;11.108;2023-03-20T01:09:50;98508.94;;;9.34;100.00
34586;BME280;20816;50.950;11.108;2023-03-20T01:12:18;98503.88;;;9.24;100.00
34586;BME280;20816;50.950;11.108;2023-03-20T01:14:45;98520.41;;;9.30;100.00
34586;BME280;20816;50.950;11.108;2023-03-20T01:17:19;98503.63;;;9.38;100.00
34586;BME280;20816;50.950;11.108;2023-03-20T01:19:46;98516.81;;;9.34;100.00
34586;BME280;20816;50.950;11.108;2023-03-20T01:22:21;98511.59;;;9.32;100.00
34586;BME280;20816;50.950;11.108;2023-03-20T01:24:48;98505.50;;;9.32;100.00
34586;BME280;20816;50.950;11.108;2023-03-20T01:27:17;98508.03;;;9.35;100.00
34586;BME280;20816;50.950;11.108;2023-03-20T01:29:44;98497.50;;;9.36;100.00
34586;BME280;20816;50.950;11.108;2023-03-20T01:32:14;98501.75;;;9.45;100.00
34586;BME280;20816;50.950;11.108;2023-03-20T01:34:42;98510.50;;;9.44;100.00
34586;BME280;20816;50.950;11.108;2023-03-20T01:37:12;98503.53;;;9.43;100.00
34586;BME280;20816;50.950;11.108;2023-03-20T01:39:39;98506.22;;;9.40;100.00
34586;BME280;20816;50.950;11.108;2023-03-20T01:42:06;98515.97;;;9.32;100.00
34586;BME280;20816;50.950;11.108;2023-03-20T01:44:36;98519.59;;;9.24;100.00
34586;BME280;20816;50.950;11.108;2023-03-20T01:47:13;98525.00;;;9.15;100.00
34586;BME280;20816;50.950;11.108;2023-03-20T01:50:20;98524.84;;;9.24;100.00
34586;BME280;20816;50.950;11.108;2023-03-20T01:52:51;98522.19;;;9.26;100.00
34586;BME280;20816;50.950;11.108;2023-03-20T01:55:21;98525.63;;;9.28;100.00
34586;BME280;20816;50.950;11.108;2023-03-20T01:57:50;98520.41;;;9.28;100.00
34586;BME280;20816;50.950;11.108;2023-03-20T02:00:18;98532.53;;;9.34;100.00
34586;BME280;20816;50.950;11.108;2023-03-20T02:02:48;98521.91;;;9.41;100.00
34586;BME280;20816;50.950;11.108;2023-03-20T02:05:19;98528.13;;;9.36;100.00
34586;BME280;20816;50.950;11.108;2023-03-20T02:07:57;98521.13;;;9.38;100.00
34586;BME280;20816;50.950;11.108;2023-03-20T02:10:28;98525.38;;;9.43;100.00
34586;BME280;20816;50.950;11.108;2023-03-20T02:12:57;98524.28;;;9.55;100.00
34586;BME280;20816;50.950;11.108;2023-03-20T02:15:26;98524.41;;;9.49;100.00
34586;BME280;20816;50.950;11.108;2023-03-20T02:17:53;98513.84;;;9.52;100.00
34586;BME280;20816;50.950;11.108;2023-03-20T02:23:16;98513.16;;;9.42;100.00
34586;BME280;20816;50.950;11.108;2023-03-20T02:40:11;98506.09;;;9.46;100.00
34586;BME280;20816;50.950;11.108;2023-03-20T02:46:10;98506.19;;;9.41;100.00
34586;BME280;20816;50.950;11.108;2023-03-20T02:50:49;98502.63;;;9.45;100.00
34586;BME280;20816;50.950;11.108;2023-03-20T02:56:13;98506.28;;;9.37;100.00
34586;BME280;20816;50.950;11.108;2023-03-20T03:04:02;98512.13;;;9.51;100.00
34586;BME280;20816;50.950;11.108;2023-03-20T03:06:32;98505.31;;;9.41;100.00
34586;BME280;20816;50.950;11.108;2023-03-20T03:09:05;98506.22;;;9.40;100.00
34586;BME280;20816;50.950;11.108;2023-03-20T03:11:48;98504.34;;;9.46;100.00
34586;BME280;20816;50.950;11.108;2023-03-20T03:14:45;98507.75;;;9.50;100.00
34586;BME280;20816;50.950;11.108;2023-03-20T03:17:14;98511.06;;;9.60;100.00
34586;BME280;20816;50.950;11.108;2023-03-20T03:19:46;98513.84;;;9.53;100.00
34586;BME280;20816;50.950;11.108;2023-03-20T03:22:17;98515.63;;;9.50;100.00
34586;BME280;20816;50.950;11.108;2023-03-20T03:24:50;98506.75;;;9.57;100.00
34586;BME280;20816;50.950;11.108;2023-03-20T03:27:30;98508.41;;;9.63;100.00
34586;BME280;20816;50.950;11.108;2023-03-20T03:30:03;98508.41;;;9.63;100.00
34586;BME280;20816;50.950;11.108;2023-03-20T03:32:34;98511.00;;;9.64;100.00
34586;BME280;20816;50.950;11.108;2023-03-20T03:35:04;98512.59;;;9.71;100.00
34586;BME280;20816;50.950;11.108;2023-03-20T03:37:57;98511.72;;;9.72;100.00
34586;BME280;20816;50.950;11.108;2023-03-20T03:43:06;98516.97;;;9.72;100.00
34586;BME280;20816;50.950;11.108;2023-03-20T03:45:44;98514.38;;;9.71;100.00
34586;BME280;20816;50.950;11.108;2023-03-20T03:48:20;98515.22;;;9.71;100.00
34586;BME280;20816;50.950;11.108;2023-03-20T03:50:53;98517.06;;;9.66;100.00
34586;BME280;20816;50.950;11.108;2023-03-20T03:53:23;98525.03;;;9.62;100.00
34586;BME280;20816;50.950;11.108;2023-03-20T03:55:56;98524.19;;;9.61;100.00
34586;BME280;20816;50.950;11.108;2023-03-20T03:58:35;98517.91;;;9.68;100.00
34586;BME280;20816;50.950;11.108;2023-03-20T04:01:06;98527.66;;;9.60;100.00
34586;BME280;20816;50.950;11.108;2023-03-20T04:03:40;98531.19;;;9.59;100.00
34586;BME280;20816;50.950;11.108;2023-03-20T04:06:10;98533.84;;;9.58;100.00
34586;BME280;20816;50.950;11.108;2023-03-20T04:08:41;98536.50;;;9.56;100.00
34586;BME280;20816;50.950;11.108;2023-03-20T04:11:15;98542.69;;;9.53;100.00
34586;BME280;20816;50.950;11.108;2023-03-20T04:13:44;98547.13;;;9.50;100.00
34586;BME280;20816;50.950;11.108;2023-03-20T04:16:12;98555.81;;;9.52;100.00
34586;BME280;20816;50.950;11.108;2023-03-20T04:18:42;98544.47;;;9.51;100.00
34586;BME280;20816;50.950;11.108;2023-03-20T04:21:09;98548.91;;;9.48;100.00
34586;BME280;20816;50.950;11.108;2023-03-20T04:23:36;98552.47;;;9.45;100.00
34586;BME280;20816;50.950;11.108;2023-03-20T04:26:04;98552.47;;;9.44;100.00
34586;BME280;20816;50.950;11.108;2023-03-20T04:28:31;98555.00;;;9.50;100.00
34586;BME280;20816;50.950;11.108;2023-03-20T04:31:01;98547.09;;;9.53;100.00
34586;BME280;20816;50.950;11.108;2023-03-20T04:33:29;98557.56;;;9.53;100.00
34586;BME280;20816;50.950;11.108;2023-03-20T04:35:56;98566.22;;;9.58;100.00
34586;BME280;20816;50.950;11.108;2023-03-20T04:38:23;98552.19;;;9.59;100.00
34586;BME280;20816;50.950;11.108;2023-03-20T04:40:50;98559.22;;;9.57;100.00
34586;BME280;20816;50.950;11.108;2023-03-20T04:43:16;98562.69;;;9.59;100.00
34586;BME280;20816;50.950;11.108;2023-03-20T04:45:43;98550.53;;;9.55;100.00
34586;BME280;20816;50.950;11.108;2023-03-20T04:48:13;98561.03;;;9.55;100.00
34586;BME280;20816;50.950;11.108;2023-03-20T04:50:39;98557.50;;;9.56;100.00
34586;BME280;20816;50.950;11.108;2023-03-20T04:53:06;98546.16;;;9.55;100.00
34586;BME280;20816;50.950;11.108;2023-03-20T04:55:33;98555.78;;;9.55;100.00
34586;BME280;20816;50.950;11.108;2023-03-20T04:58:00;98563.53;;;9.60;100.00
34586;BME280;20816;50.950;11.108;2023-03-20T05:00:26;98560.91;;;9.61;100.00
34586;BME280;20816;50.950;11.108;2023-03-20T05:02:53;98552.00;;;9.68;100.00
34586;BME280;20816;50.950;11.108;2023-03-20T05:05:21;98557.25;;;9.68;100.00
34586;BME280;20816;50.950;11.108;2023-03-20T05:07:49;98559.91;;;9.67;100.00
34586;BME280;20816;50.950;11.108;2023-03-20T05:10:17;98559.03;;;9.69;100.00
34586;BME280;20816;50.950;11.108;2023-03-20T05:12:44;98558.31;;;9.60;100.00
34586;BME280;20816;50.950;11.108;2023-03-20T05:15:13;98563.66;;;9.55;100.00
34586;BME280;20816;50.950;11.108;2023-03-20T05:17:44;98562.81;;;9.53;100.00
34586;BME280;20816;50.950;11.108;2023-03-20T05:20:10;98573.31;;;9.53;100.00
34586;BME280;20816;50.950;11.108;2023-03-20T05:22:37;98571.63;;;9.49;100.00
34586;BME280;20816;50.950;11.108;2023-03-20T05:25:04;98564.59;;;9.51;100.00
34586;BME280;20816;50.950;11.108;2023-03-20T05:27:31;98563.75;;;9.49;100.00
34586;BME280;20816;50.950;11.108;2023-03-20T05:30:02;98567.25;;;9.49;100.00
34586;BME280;20816;50.950;11.108;2023-03-20T05:32:29;98564.56;;;9.54;100.00
34586;BME280;20816;50.950;11.108;2023-03-20T05:34:56;98568.88;;;9.57;100.00
34586;BME280;20816;50.950;11.108;2023-03-20T05:37:22;98568.88;;;9.57;100.00
34586;BME280;20816;50.950;11.108;2023-03-20T05:39:49;98572.34;;;9.57;100.00
34586;BME280;20816;50.950;11.108;2023-03-20T05:42:15;98575.78;;;9.62;100.00
34586;BME280;20816;50.950;11.108;2023-03-20T05:44:45;98559.91;;;9.67;100.00
34586;BME280;20816;50.950;11.108;2023-03-20T05:47:11;98565.13;;;9.68;100.00
34586;BME280;20816;50.950;11.108;2023-03-20T05:49:38;98569.56;;;9.66;100.00
34586;BME280;20816;50.950;11.108;2023-03-20T05:52:05;98575.63;;;9.68;100.00
34586;BME280;20816;50.950;11.108;2023-03-20T05:54:31;98580.06;;;9.66;100.00
34586;BME280;20816;50.950;11.108;2023-03-20T05:57:01;98572.91;;;9.74;100.00
34586;BME280;20816;50.950;11.108;2023-03-20T05:59:28;98578.09;;;9.77;100.00
34586;BME280;20816;50.950;11.108;2023-03-20T06:01:54;98578.16;;;9.74;100.00
34586;BME280;20816;50.950;11.108;2023-03-20T06:04:21;98571.09;;;9.76;100.00
34586;BME280;20816;50.950;11.108;2023-03-20T06:06:48;98576.31;;;9.79;100.00
34586;BME280;20816;50.950;11.108;2023-03-20T06:09:14;98581.59;;;9.76;100.00
34586;BME280;20816;50.950;11.108;2023-03-20T06:11:59;98583.28;;;9.80;100.00
34586;BME280;20816;50.950;11.108;2023-03-20T06:14:26;98579.84;;;9.78;100.00
34586;BME280;20816;50.950;11.108;2023-03-20T06:16:52;98589.47;;;9.76;100.00
34586;BME280;20816;50.950;11.108;2023-03-20T06:19:26;98583.34;;;9.77;100.00
34586;BME280;20816;50.950;11.108;2023-03-20T06:21:53;98571.06;;;9.79;100.00
34586;BME280;20816;50.950;11.108;2023-03-20T06:24:20;98573.53;;;9.87;100.00
34586;BME280;20816;50.950;11.108;2023-03-20T06:26:47;98574.38;;;9.89;100.00
34586;BME280;20816;50.950;11.108;2023-03-20T06:29:13;98580.47;;;9.90;100.00
34586;BME280;20816;50.950;11.108;2023-03-20T06:31:40;98582.88;;;10.02;100.00
34586;BME280;20816;50.950;11.108;2023-03-20T06:34:19;98583.94;;;9.92;100.00
34586;BME280;20816;50.950;11.108;2023-03-20T06:36:46;98584.91;;;9.88;100.00
34586;BME280;20816;50.950;11.108;2023-03-20T06:39:14;98590.81;;;9.99;100.00
34586;BME280;20816;50.950;11.108;2023-03-20T06:41:41;98595.28;;;9.94;100.00
34586;BME280;20816;50.950;11.108;2023-03-20T06:44:07;98590.03;;;9.94;100.00
34586;BME280;20816;50.950;11.108;2023-03-20T06:46:34;98601.41;;;9.93;100.00
34586;BME280;20816;50.950;11.108;2023-03-20T06:49:01;98600.59;;;9.91;100.00
34586;BME280;20816;50.950;11.108;2023-03-20T06:51:27;98596.19;;;9.91;100.00
34586;BME280;20816;50.950;11.108;2023-03-20T06:53:54;98600.59;;;9.91;100.00
34586;BME280;20816;50.950;11.108;2023-03-20T06:56:21;98599.66;;;9.95;100.00
34586;BME280;20816;50.950;11.108;2023-03-20T06:58:49;98598.75;;;9.96;100.00
34586;BME280;20816;50.950;11.108;2023-03-20T07:01:16;98604.72;;;10.04;100.00
34586;BME280;20816;50.950;11.108;2023-03-20T07:03:45;98602.09;;;10.04;100.00
34586;BME280;20816;50.950;11.108;2023-03-20T07:06:12;98605.44;;;10.12;100.00
34586;BME280;20816;50.950;11.108;2023-03-20T07:08:39;98604.41;;;10.18;100.00
34586;BME280;20816;50.950;11.108;2023-03-20T07:11:05;98606.16;;;10.20;100.00
34586;BME280;20816;50.950;11.108;2023-03-20T07:13:32;98607.03;;;10.19;100.00
34586;BME280;20816;50.950;11.108;2023-03-20T07:16:00;98600.00;;;10.21;100.00
34586;BME280;20816;50.950;11.108;2023-03-20T07:18:30;98605.78;;;10.38;100.00
34586;BME280;20816;50.950;11.108;2023-03-20T07:21:02;98610.03;;;10.46;100.00
34586;BME280;20816;50.950;11.108;2023-03-20T07:23:29;98611.66;;;10.50;100.00
34586;BME280;20816;50.950;11.108;2023-03-20T07:25:57;98611.53;;;10.56;100.00
34586;BME280;20816;50.950;11.108;2023-03-20T07:28:24;98610.47;;;10.64;100.00
34586;BME280;20816;50.950;11.108;2023-03-20T07:30:51;98614.66;;;10.73;100.00
34586;BME280;20816;50.950;11.108;2023-03-20T07:33:26;98616.47;;;10.71;100.00
34586;BME280;20816;50.950;11.108;2023-03-20T07:35:53;98612.16;;;10.69;100.00
34586;BME280;20816;50.950;11.108;2023-03-20T07:38:21;98617.41;;;10.69;100.00
34586;BME280;20816;50.950;11.108;2023-03-20T07:40:48;98616.63;;;10.63;100.00
34586;BME280;20816;50.950;11.108;2023-03-20T07:43:16;98613.81;;;10.73;100.00
34586;BME280;20816;50.950;11.108;2023-03-20T07:45:42;98614.06;;;10.62;100.00
34586;BME280;20816;50.950;11.108;2023-03-20T07:48:09;98615.84;;;10.60;100.00
34586;BME280;20816;50.950;11.108;2023-03-20T07:50:39;98618.31;;;10.66;100.00
34586;BME280;20816;50.950;11.108;2023-03-20T07:53:08;98616.22;;;10.83;100.00
34586;BME280;20816;50.950;11.108;2023-03-20T07:55:34;98619.03;;;11.13;100.00
34586;BME280;20816;50.950;11.108;2023-03-20T07:58:02;98620.25;;;11.35;100.00
34586;BME280;20816;50.950;11.108;2023-03-20T08:00:28;98617.91;;;11.59;100.00
34586;BME280;20816;50.950;11.108;2023-03-20T08:02:55;98629.81;;;11.72;100.00
34586;BME280;20816;50.950;11.108;2023-03-20T08:05:23;98629.56;;;11.84;100.00
34586;BME280;20816;50.950;11.108;2023-03-20T08:07:50;98627.72;;;11.86;100.00
34586;BME280;20816;50.950;11.108;2023-03-20T08:10:17;98629.31;;;11.93;100.00
34586;BME280;20816;50.950;11.108;2023-03-20T08:12:43;98622.63;;;11.80;100.00
34586;BME280;20816;50.950;11.108;2023-03-20T08:15:10;98633.31;;;11.74;100.00
34586;BME280;20816;50.950;11.108;2023-03-20T08:17:36;98628.94;;;11.73;100.00
34586;BME280;20816;50.950;11.108;2023-03-20T08:20:03;98627.88;;;11.80;100.00
34586;BME280;20816;50.950;11.108;2023-03-20T08:22:33;98631.03;;;11.94;100.00
34586;BME280;20816;50.950;11.108;2023-03-20T08:24:59;98629.72;;;12.11;100.00
34586;BME280;20816;50.950;11.108;2023-03-20T08:27:26;98624.09;;;12.23;100.00
34586;BME280;20816;50.950;11.108;2023-03-20T08:29:52;98623.97;;;12.27;100.00
34586;BME280;20816;50.950;11.108;2023-03-20T08:32:19;98626.22;;;12.41;100.00
34586;BME280;20816;50.950;11.108;2023-03-20T08:34:46;98621.63;;;12.48;100.00
34586;BME280;20816;50.950;11.108;2023-03-20T08:37:12;98621.69;;;12.46;100.00
34586;BME280;20816;50.950;11.108;2023-03-20T08:39:39;98629.75;;;12.40;100.00
34586;BME280;20816;50.950;11.108;2023-03-20T08:42:06;98635.31;;;12.31;100.00
34586;BME280;20816;50.950;11.108;2023-03-20T08:44:32;98643.22;;;12.29;100.00
34586;BME280;20816;50.950;11.108;2023-03-20T08:46:59;98644.34;;;12.21;100.00
34586;BME280;20816;50.950;11.108;2023-03-20T08:49:26;98645.19;;;11.90;100.00
34586;BME280;20816;50.950;11.108;2023-03-20T08:51:53;98648.41;;;12.01;100.00
34586;BME280;20816;50.950;11.108;2023-03-20T08:54:19;98647.53;;;12.01;100.00
34586;BME280;20816;50.950;11.108;2023-03-20T08:56:46;98651.09;;;12.00;100.00
34586;BME280;20816;50.950;11.108;2023-03-20T08:59:12;98643.28;;;11.95;100.00
34586;BME280;20816;50.950;11.108;2023-03-20T09:01:39;98654.00;;;11.89;100.00
34586;BME280;20816;50.950;11.108;2023-03-20T09:04:15;98653.91;;;11.92;100.00
34586;BME280;20816;50.950;11.108;2023-03-20T09:06:42;98650.06;;;11.70;100.00
34586;BME280;20816;50.950;11.108;2023-03-20T09:09:08;98648.63;;;11.58;100.00
34586;BME280;20816;50.950;11.108;2023-03-20T09:11:35;98646.09;;;11.54;100.00
34586;BME280;20816;50.950;11.108;2023-03-20T09:14:02;98649.50;;;11.59;100.00
34586;BME280;20816;50.950;11.108;2023-03-20T09:16:28;98653.25;;;11.48;100.00
34586;BME280;20816;50.950;11.108;2023-03-20T09:18:55;98662.88;;;11.49;100.00
34586;BME280;20816;50.950;11.108;2023-03-20T09:21:21;98661.97;;;11.50;100.00
34586;BME280;20816;50.950;11.108;2023-03-20T09:23:48;98660.25;;;11.49;100.00
34586;BME280;20816;50.950;11.108;2023-03-20T09:26:14;98651.31;;;11.57;100.00
34586;BME280;20816;50.950;11.108;2023-03-20T09:28:41;98667.06;;;11.58;100.00
34586;BME280;20816;50.950;11.108;2023-03-20T09:31:07;98661.59;;;11.66;100.00
34586;BME280;20816;50.950;11.108;2023-03-20T09:33:34;98656.25;;;11.69;100.00
34586;BME280;20816;50.950;11.108;2023-03-20T09:36:00;98659.50;;;11.80;100.00
34586;BME280;20816;50.950;11.108;2023-03-20T09:38:29;98675.09;;;11.89;100.00
34586;BME280;20816;50.950;11.108;2023-03-20T09:40:58;98666.63;;;11.75;100.00
34586;BME280;20816;50.950;11.108;2023-03-20T09:49:11;98668.50;;;11.34;100.00
34586;BME280;20816;50.950;11.108;2023-03-20T09:51:55;98665.16;;;11.28;100.00
34586;BME280;20816;50.950;11.108;2023-03-20T09:54:28;98672.13;;;11.29;100.00
34586;BME280;20816;50.950;11.108;2023-03-20T09:57:33;98672.00;;;11.35;100.00
34586;BME280;20816;50.950;11.108;2023-03-20T10:00:05;98666.69;;;11.36;100.00
34586;BME280;20816;50.950;11.108;2023-03-20T10:02:51;98671.81;;;11.42;100.00
34586;BME280;20816;50.950;11.108;2023-03-20T10:05:25;98674.47;;;11.42;100.00
34586;BME280;20816;50.950;11.108;2023-03-20T10:08:01;98677.81;;;11.47;100.00
34586;BME280;20816;50.950;11.108;2023-03-20T10:10:38;98671.78;;;11.44;100.00
34586;BME280;20816;50.950;11.108;2023-03-20T10:13:30;98675.88;;;11.56;100.00
34586;BME280;20816;50.950;11.108;2023-03-20T10:16:35;98669.72;;;11.57;100.00
34586;BME280;20816;50.950;11.108;2023-03-20T10:19:15;98664.09;;;11.70;100.00
34586;BME280;20816;50.950;11.108;2023-03-20T10:21:47;98671.59;;;11.87;100.00
34586;BME280;20816;50.950;11.108;2023-03-20T10:24:37;98671.34;;;11.96;100.00
34586;BME280;20816;50.950;11.108;2023-03-20T10:27:39;98665.78;;;12.09;100.00
34586;BME280;20816;50.950;11.108;2023-03-20T10:38:41;98671.03;;;12.09;100.00
34586;BME280;20816;50.950;11.108;2023-03-20T10:41:23;98662.63;;;11.94;100.00
34586;BME280;20816;50.950;11.108;2023-03-20T10:43:52;98659.50;;;11.80;100.00
34586;BME280;20816;50.950;11.108;2023-03-20T10:46:22;98650.63;;;11.84;100.00
34586;BME280;20816;50.950;11.108;2023-03-20T10:49:17;98654.88;;;11.90;100.00
34586;BME280;20816;50.950;11.108;2023-03-20T10:51:55;98657.38;;;11.94;100.00
34586;BME280;20816;50.950;11.108;2023-03-20T10:54:30;98659.50;;;12.14;100.00
34586;BME280;20816;50.950;11.108;2023-03-20T10:57:00;98650.25;;;12.29;100.00
34586;BME280;20816;50.950;11.108;2023-03-20T10:59:32;98653.09;;;12.23;100.00
34586;BME280;20816;50.950;11.108;2023-03-20T11:02:11;98651.97;;;12.31;100.00
34586;BME280;20816;50.950;11.108;2023-03-20T11:04:38;98658.41;;;12.52;100.00
34586;BME280;20816;50.950;11.108;2023-03-20T11:07:27;98657.63;;;12.78;100.00
34586;BME280;20816;50.950;11.108;2023-03-20T11:12:34;98653.13;;;12.82;100.00
34586;BME280;20816;50.950;11.108;2023-03-20T11:15:30;98649.28;;;12.64;100.00
34586;BME280;20816;50.950;11.108;2023-03-20T11:18:10;98651.19;;;12.28;100.00
34586;BME280;20816;50.950;11.108;2023-03-20T11:20:49;98645.31;;;12.18;100.00
34586;BME280;20816;50.950;11.108;2023-03-20T11:23:19;98638.75;;;12.33;100.00
34586;BME280;20816;50.950;11.108;2023-03-20T11:25:52;98638.97;;;12.56;100.00
34586;BME280;20816;50.950;11.108;2023-03-20T11:31:05;98633.59;;;12.89;100.00
34586;BME280;20816;50.950;11.108;2023-03-20T11:33:36;98634.06;;;13.02;100.00
34586;BME280;20816;50.950;11.108;2023-03-20T11:36:10;98629.69;;;13.01;100.00
34586;BME280;20816;50.950;11.108;2023-03-20T11:38:43;98629.97;;;12.91;100.00
34586;BME280;20816;50.950;11.108;2023-03-20T11:41:22;98626.97;;;13.04;100.00
34586;BME280;20816;50.950;11.108;2023-03-20T11:43:49;98621.19;;;12.91;100.00
34586;BME280;20816;50.950;11.108;2023-03-20T11:46:15;98633.81;;;13.09;100.00
34586;BME280;20816;50.950;11.108;2023-03-20T11:48:45;98620.69;;;13.36;100.00
34586;BME280;20816;50.950;11.108;2023-03-20T11:51:18;98614.75;;;13.56;100.00
34586;BME280;20816;50.950;11.108;2023-03-20T11:56:25;98605.38;;;13.72;100.00
34586;BME280;20816;50.950;11.108;2023-03-20T11:59:12;98597.94;;;14.08;100.00
34586;BME280;20816;50.950;11.108;2023-03-20T12:01:43;98596.22;;;14.07;97.72
34586;BME280;20816;50.950;11.108;2023-03-20T12:04:16;98595.56;;;14.25;96.94
34586;BME280;20816;50.950;11.108;2023-03-20T12:06:47;98597.88;;;14.35;96.99
34586;BME280;20816;50.950;11.108;2023-03-20T12:09:40;98592.38;;;14.16;96.06
34586;BME280;20816;50.950;11.108;2023-03-20T12:12:28;98590.47;;;13.71;96.52
34586;BME280;20816;50.950;11.108;2023-03-20T12:17:48;98589.41;;;13.50;97.80
34586;BME280;20816;50.950;11.108;2023-03-20T12:23:19;98591.25;;;13.48;95.45
34586;BME280;20816;50.950;11.108;2023-03-20T12:25:54;98588.84;;;13.40;94.23
34586;BME280;20816;50.950;11.108;2023-03-20T12:31:21;98579.69;;;14.02;93.77
34586;BME280;20816;50.950;11.108;2023-03-20T12:33:56;98577.66;;;14.09;93.64
34586;BME280;20816;50.950;11.108;2023-03-20T12:36:30;98570.31;;;14.17;91.68
34586;BME280;20816;50.950;11.108;2023-03-20T12:38:58;98572.81;;;13.96;89.81
34586;BME280;20816;50.950;11.108;2023-03-20T12:44:25;98567.22;;;13.81;90.01
34586;BME280;20816;50.950;11.108;2023-03-20T12:47:11;98567.28;;;13.54;90.59
34586;BME280;20816;50.950;11.108;2023-03-20T12:55:03;98547.75;;;13.58;90.67
34586;BME280;20816;50.950;11.108;2023-03-20T13:01:30;98551.00;;;13.66;90.63
34586;BME280;20816;50.950;11.108;2023-03-20T13:06:53;98554.28;;;13.73;89.83
34586;BME280;20816;50.950;11.108;2023-03-20T13:10:04;98540.47;;;13.90;87.96
34586;BME280;20816;50.950;11.108;2023-03-20T13:12:44;98541.28;;;14.15;88.05
34586;BME280;20816;50.950;11.108;2023-03-20T13:15:27;98543.81;;;13.95;87.22
34586;BME280;20816;50.950;11.108;2023-03-20T13:18:15;98543.91;;;13.92;87.27
34586;BME280;20816;50.950;11.108;2023-03-20T13:20:55;98538.41;;;13.98;87.04
34586;BME280;20816;50.950;11.108;2023-03-20T13:26:31;98536.44;;;13.80;87.33
34586;BME280;20816;50.950;11.108;2023-03-20T13:29:33;98536.50;;;13.53;88.65
34586;BME280;20816;50.950;11.108;2023-03-20T13:37:27;98529.72;;;13.18;90.44
34586;BME280;20816;50.950;11.108;2023-03-20T13:40:21;98524.56;;;13.15;89.91
34586;BME280;20816;50.950;11.108;2023-03-20T13:42:57;98529.78;;;12.90;90.24
34586;BME280;20816;50.950;11.108;2023-03-20T13:45:37;98531.28;;;12.71;90.38
34586;BME280;20816;50.950;11.108;2023-03-20T13:48:36;98532.81;;;12.78;90.26
34586;BME280;20816;50.950;11.108;2023-03-20T14:04:33;98514.41;;;13.03;89.90
34586;BME280;20816;50.950;11.108;2023-03-20T14:07:30;98508.00;;;13.11;88.11
34586;BME280;20816;50.950;11.108;2023-03-20T14:12:53;98512.22;;;13.42;87.83
34586;BME280;20816;50.950;11.108;2023-03-20T14:15:23;98498.22;;;13.40;85.65
34586;BME280;20816;50.950;11.108;2023-03-20T14:17:52;98503.63;;;13.62;85.74
34586;BME280;20816;50.950;11.108;2023-03-20T14:20:28;98503.94;;;13.78;84.39
34586;BME280;20816;50.950;11.108;2023-03-20T14:23:19;98497.22;;;13.69;84.58
34586;BME280;20816;50.950;11.108;2023-03-20T14:25:53;98493.00;;;13.63;84.61
34586;BME280;20816;50.950;11.108;2023-03-20T14:28:27;98497.38;;;13.64;84.75
34586;BME280;20816;50.950;11.108;2023-03-20T14:31:22;98487.25;;;13.75;85.14
34586;BME280;20816;50.950;11.108;2023-03-20T14:33:57;98489.03;;;13.75;85.68
34586;BME280;20816;50.950;11.108;2023-03-20T14:36:30;98496.44;;;13.65;85.66
34586;BME280;20816;50.950;11.108;2023-03-20T14:39:21;98503.38;;;13.68;86.25
34586;BME280;20816;50.950;11.108;2023-03-20T14:47:21;98495.75;;;13.60;86.31
34586;BME280;20816;50.950;11.108;2023-03-20T14:49:55;98494.47;;;13.47;86.17
34586;BME280;20816;50.950;11.108;2023-03-20T14:52:44;98485.63;;;13.48;85.99
34586;BME280;20816;50.950;11.108;2023-03-20T14:57:50;98498.22;;;13.40;86.52
34586;BME280;20816;50.950;11.108;2023-03-20T15:00:25;98491.75;;;13.49;86.56
34586;BME280;20816;50.950;11.108;2023-03-20T15:03:02;98488.91;;;13.30;87.25